createdAt,value
2017-05-18T00:00:27.796Z,940.6
2017-05-18T00:01:35.884Z,940.6
2017-05-18T00:02:44.093Z,940.6
2017-05-18T00:03:52.057Z,940.6
2017-05-18T00:05:00.160Z,940.6
2017-05-18T00:06:08.231Z,940.5
2017-05-18T00:07:16.318Z,940.6
2017-05-18T00:08:24.524Z,940.6
2017-05-18T00:09:32.488Z,940.5
2017-05-18T00:10:40.586Z,940.5
2017-05-18T00:11:48.782Z,940.5
2017-05-18T00:12:56.749Z,940.5
2017-05-18T00:14:04.891Z,940.5
2017-05-18T00:15:12.923Z,940.5
2017-05-18T00:16:21.008Z,940.5
2017-05-18T00:17:29.096Z,940.5
2017-05-18T00:18:37.203Z,940.5
2017-05-18T00:19:45.392Z,940.5
2017-05-18T00:20:53.355Z,940.5
2017-05-18T00:22:01.540Z,940.5
2017-05-18T00:23:09.549Z,940.4
2017-05-18T00:24:17.613Z,940.4
2017-05-18T00:25:25.820Z,940.4
2017-05-18T00:26:33.787Z,940.5
2017-05-18T00:27:42.154Z,940.4
2017-05-18T00:28:49.965Z,940.5
2017-05-18T00:29:58.048Z,940.4
2017-05-18T00:31:06.259Z,940.4
2017-05-18T00:32:14.565Z,940.4
2017-05-18T00:33:22.478Z,940.4
2017-05-18T00:34:30.397Z,940.4
2017-05-18T00:35:38.481Z,940.4
2017-05-18T00:36:46.627Z,940.4
2017-05-18T00:37:54.655Z,940.4
2017-05-18T00:39:02.843Z,940.4
2017-05-18T00:40:10.831Z,940.4
2017-05-18T00:41:18.913Z,940.4
2017-05-18T00:42:27.121Z,940.4
2017-05-18T00:43:35.161Z,940.4
2017-05-18T00:44:43.181Z,940.4
2017-05-18T00:45:51.337Z,940.4
2017-05-18T00:46:59.350Z,940.4
2017-05-18T00:48:07.560Z,940.3
2017-05-18T00:49:15.531Z,940.3
2017-05-18T00:50:23.615Z,940.3
2017-05-18T00:51:31.742Z,940.3
2017-05-18T00:52:39.783Z,940.3
2017-05-18T00:53:47.996Z,940.3
2017-05-18T00:54:55.961Z,940.3
2017-05-18T00:56:04.043Z,940.3
2017-05-18T00:57:12.131Z,940.3
2017-05-18T00:58:20.283Z,940.3
2017-05-18T00:59:28.362Z,940.3
2017-05-18T01:00:36.397Z,940.3
2017-05-18T01:01:44.483Z,940.3
2017-05-18T01:02:52.571Z,940.3
2017-05-18T01:04:00.735Z,940.3
2017-05-18T01:05:08.812Z,940.3
2017-05-18T01:06:16.829Z,940.3
2017-05-18T01:07:24.911Z,940.3
2017-05-18T01:08:32.998Z,940.3
2017-05-18T01:09:41.087Z,940.3
2017-05-18T01:10:49.388Z,940.3
2017-05-18T01:11:57.260Z,940.3
2017-05-18T01:13:05.348Z,940.3
2017-05-18T01:14:13.434Z,940.3
2017-05-18T01:15:21.584Z,940.3
2017-05-18T01:16:29.705Z,940.2
2017-05-18T01:17:37.761Z,940.3
2017-05-18T01:18:45.781Z,940.2
2017-05-18T01:19:53.866Z,940.3
2017-05-18T01:21:01.952Z,940.2
2017-05-18T01:22:10.163Z,940.2
2017-05-18T01:23:18.134Z,940.2
2017-05-18T01:24:26.211Z,940.2
2017-05-18T01:25:34.301Z,940.2
2017-05-18T01:26:42.391Z,940.2
2017-05-18T01:27:50.596Z,940.2
2017-05-18T01:28:58.565Z,940.2
2017-05-18T01:30:06.661Z,940.2
2017-05-18T01:31:14.812Z,940.2
2017-05-18T01:32:22.834Z,940.2
2017-05-18T01:33:31.208Z,940.1
2017-05-18T01:34:39.183Z,940.1
2017-05-18T01:35:47.094Z,940.2
2017-05-18T01:36:55.179Z,940.2
2017-05-18T01:38:03.275Z,940.1
2017-05-18T01:39:11.409Z,940.1
2017-05-18T01:40:19.545Z,940.1
2017-05-18T01:41:27.526Z,940.1
2017-05-18T01:42:35.608Z,940.1
2017-05-18T01:43:43.699Z,940.1
2017-05-18T01:44:51.904Z,940.1
2017-05-18T01:45:59.873Z,940.1
2017-05-18T01:47:08.016Z,940.1
2017-05-18T01:48:16.042Z,940.1
2017-05-18T01:49:24.128Z,940.1
2017-05-18T01:50:32.381Z,940.1
2017-05-18T01:51:40.301Z,940.1
2017-05-18T01:52:48.391Z,940.1
2017-05-18T01:53:56.482Z,940.1
2017-05-18T01:55:04.562Z,940.1
2017-05-18T01:56:12.770Z,940.1
2017-05-18T01:57:20.735Z,940.1
2017-05-18T01:58:28.818Z,940.1
2017-05-18T01:59:36.916Z,940.1
2017-05-18T02:00:44.992Z,940.1
2017-05-18T02:01:53.134Z,940.1
2017-05-18T02:03:01.441Z,940.1
2017-05-18T02:04:09.262Z,940.1
2017-05-18T02:05:17.345Z,940.2
2017-05-18T02:06:25.441Z,940.1
2017-05-18T02:07:33.647Z,940.1
2017-05-18T02:08:41.615Z,940.1
2017-05-18T02:09:49.841Z,940.1
2017-05-18T02:10:57.784Z,940.1
2017-05-18T02:12:05.874Z,940.1
2017-05-18T02:13:14.082Z,940.1
2017-05-18T02:14:22.051Z,940.1
2017-05-18T02:15:30.206Z,940.1
2017-05-18T02:16:38.226Z,940.0
2017-05-18T02:17:46.322Z,940.1
2017-05-18T02:18:54.527Z,940.1
2017-05-18T02:20:02.494Z,940.1
2017-05-18T02:21:10.579Z,940.0
2017-05-18T02:22:18.665Z,940.1
2017-05-18T02:23:26.749Z,940.0
2017-05-18T02:24:34.893Z,940.1
2017-05-18T02:25:42.927Z,940.0
2017-05-18T02:26:51.013Z,940.0
2017-05-18T02:27:59.100Z,940.0
2017-05-18T02:29:07.186Z,940.0
2017-05-18T02:30:15.391Z,940.0
2017-05-18T02:31:23.359Z,940.0
2017-05-18T02:32:31.643Z,940.0
2017-05-18T02:33:39.532Z,940.0
2017-05-18T02:34:47.674Z,940.0
2017-05-18T02:35:55.761Z,940.0
2017-05-18T02:37:03.791Z,940.0
2017-05-18T02:38:12.016Z,940.0
2017-05-18T02:39:20.111Z,940.0
2017-05-18T02:40:28.047Z,940.0
2017-05-18T02:41:36.250Z,940.0
2017-05-18T02:42:44.224Z,939.9
2017-05-18T02:43:52.307Z,940.0
2017-05-18T02:45:00.456Z,940.0
2017-05-18T02:46:08.479Z,940.0
2017-05-18T02:47:16.689Z,940.0
2017-05-18T02:48:24.651Z,940.0
2017-05-18T02:49:32.742Z,940.0
2017-05-18T02:50:40.886Z,940.0
2017-05-18T02:51:48.922Z,940.0
2017-05-18T02:52:57.127Z,940.0
2017-05-18T02:54:05.098Z,939.9
2017-05-18T02:55:13.187Z,940.0
2017-05-18T02:56:21.267Z,940.0
2017-05-18T02:57:29.358Z,940.0
2017-05-18T02:58:37.562Z,940.0
2017-05-18T02:59:45.528Z,940.0
2017-05-18T03:00:53.612Z,940.0
2017-05-18T03:02:01.859Z,940.0
2017-05-18T03:03:09.786Z,940.0
2017-05-18T03:04:17.933Z,940.1
2017-05-18T03:05:25.959Z,940.1
2017-05-18T03:06:34.171Z,940.1
2017-05-18T03:07:42.257Z,940.0
2017-05-18T03:08:50.358Z,940.1
2017-05-18T03:09:58.426Z,940.0
2017-05-18T03:11:06.388Z,940.1
2017-05-18T03:12:14.481Z,940.1
2017-05-18T03:13:22.560Z,940.1
2017-05-18T03:14:30.770Z,940.1
2017-05-18T03:15:38.792Z,940.1
2017-05-18T03:16:46.824Z,940.0
2017-05-18T03:17:54.907Z,940.1
2017-05-18T03:19:02.996Z,940.0
2017-05-18T03:20:11.157Z,940.0
2017-05-18T03:21:19.389Z,940.0
2017-05-18T03:22:27.378Z,940.0
2017-05-18T03:23:35.341Z,940.0
2017-05-18T03:24:43.430Z,940.1
2017-05-18T03:25:51.521Z,940.1
2017-05-18T03:26:59.712Z,940.1
2017-05-18T03:28:07.689Z,940.1
2017-05-18T03:29:15.779Z,940.1
2017-05-18T03:30:23.860Z,940.1
2017-05-18T03:31:31.949Z,940.1
2017-05-18T03:32:40.159Z,940.1
2017-05-18T03:33:48.124Z,940.1
2017-05-18T03:34:56.212Z,940.1
2017-05-18T03:36:04.293Z,940.0
2017-05-18T03:37:12.570Z,940.0
2017-05-18T03:38:20.791Z,940.0
2017-05-18T03:39:28.562Z,940.0
2017-05-18T03:40:36.654Z,940.0
2017-05-18T03:41:44.736Z,940.0
2017-05-18T03:42:52.822Z,940.0
2017-05-18T03:44:01.194Z,940.1
2017-05-18T03:45:08.995Z,940.1
2017-05-18T03:46:17.085Z,940.0
2017-05-18T03:47:25.175Z,940.0
2017-05-18T03:48:33.250Z,940.0
2017-05-18T03:49:41.539Z,940.0
2017-05-18T03:50:49.486Z,940.0
2017-05-18T03:51:57.511Z,940.0
2017-05-18T03:53:05.988Z,940.0
2017-05-18T03:54:13.807Z,940.0
2017-05-18T03:55:21.892Z,940.0
2017-05-18T03:56:29.860Z,940.0
2017-05-18T03:57:37.948Z,940.0
2017-05-18T03:58:46.033Z,940.0
2017-05-18T03:59:54.123Z,940.0
2017-05-18T04:01:02.262Z,940.0
2017-05-18T04:02:10.331Z,940.0
2017-05-18T04:03:18.375Z,940.1
2017-05-18T04:04:26.463Z,940.1
2017-05-18T04:05:34.547Z,940.0
2017-05-18T04:06:42.758Z,940.1
2017-05-18T04:07:51.083Z,940.1
2017-05-18T04:08:58.874Z,940.1
2017-05-18T04:10:07.038Z,940.1
2017-05-18T04:11:14.984Z,940.1
2017-05-18T04:12:23.123Z,940.1
2017-05-18T04:13:31.156Z,940.1
2017-05-18T04:14:39.239Z,940.1
2017-05-18T04:15:47.327Z,940.1
2017-05-18T04:16:55.409Z,940.1
2017-05-18T04:18:03.555Z,940.1
2017-05-18T04:19:11.759Z,940.1
2017-05-18T04:20:19.672Z,940.1
2017-05-18T04:21:27.760Z,940.1
2017-05-18T04:22:35.846Z,940.1
2017-05-18T04:23:44.055Z,940.1
2017-05-18T04:24:52.040Z,940.1
2017-05-18T04:26:00.378Z,940.1
2017-05-18T04:27:08.190Z,940.1
2017-05-18T04:28:16.275Z,940.1
2017-05-18T04:29:24.484Z,940.1
2017-05-18T04:30:32.445Z,940.2
2017-05-18T04:31:40.625Z,940.1
2017-05-18T04:32:48.621Z,940.1
2017-05-18T04:33:56.703Z,940.1
2017-05-18T04:35:05.795Z,940.1
2017-05-18T04:36:12.881Z,940.1
2017-05-18T04:37:21.005Z,940.1
2017-05-18T04:38:29.656Z,940.1
2017-05-18T04:39:37.139Z,940.1
2017-05-18T04:40:45.278Z,940.1
2017-05-18T04:41:53.602Z,940.1
2017-05-18T04:43:01.401Z,940.1
2017-05-18T04:44:09.481Z,940.1
2017-05-18T04:45:17.570Z,940.1
2017-05-18T04:46:25.824Z,940.1
2017-05-18T04:47:33.742Z,940.1
2017-05-18T04:48:42.010Z,940.1
2017-05-18T04:49:49.917Z,940.1
2017-05-18T04:50:58.000Z,940.1
2017-05-18T04:52:06.142Z,940.1
2017-05-18T04:53:14.173Z,940.1
2017-05-18T04:54:22.389Z,940.2
2017-05-18T04:55:30.484Z,940.2
2017-05-18T04:56:38.428Z,940.2
2017-05-18T04:57:48.682Z,940.1
2017-05-18T04:58:54.605Z,940.2
2017-05-18T05:00:02.690Z,940.2
2017-05-18T05:01:10.775Z,940.2
2017-05-18T05:02:18.867Z,940.2
2017-05-18T05:03:27.066Z,940.2
2017-05-18T05:04:35.035Z,940.2
2017-05-18T05:05:43.122Z,940.2
2017-05-18T05:06:51.208Z,940.2
2017-05-18T05:07:59.304Z,940.2
2017-05-18T05:09:07.505Z,940.3
2017-05-18T05:10:15.470Z,940.3
2017-05-18T05:11:23.556Z,940.3
2017-05-18T05:12:31.648Z,940.4
2017-05-18T05:13:39.842Z,940.4
2017-05-18T05:14:48.789Z,940.4
2017-05-18T05:15:55.902Z,940.4
2017-05-18T05:17:03.983Z,940.5
2017-05-18T05:18:12.251Z,940.4
2017-05-18T05:19:20.462Z,940.4
2017-05-18T05:20:28.362Z,940.4
2017-05-18T05:21:36.379Z,940.4
2017-05-18T05:22:44.415Z,940.4
2017-05-18T05:23:52.595Z,940.4
2017-05-18T05:25:00.697Z,940.4
2017-05-18T05:26:08.792Z,940.5
2017-05-18T05:27:16.762Z,940.5
2017-05-18T05:28:24.842Z,940.5
2017-05-18T05:29:33.049Z,940.5
2017-05-18T05:30:41.057Z,940.5
2017-05-18T05:31:49.225Z,940.5
2017-05-18T05:32:57.188Z,940.5
2017-05-18T05:34:05.277Z,940.5
2017-05-18T05:35:13.358Z,940.6
2017-05-18T05:36:21.468Z,940.5
2017-05-18T05:37:29.702Z,940.7
2017-05-18T05:38:37.623Z,940.6
2017-05-18T05:39:45.707Z,940.7
2017-05-18T05:40:53.788Z,940.7
2017-05-18T05:42:01.876Z,940.7
2017-05-18T05:43:10.013Z,940.8
2017-05-18T05:44:18.047Z,940.7
2017-05-18T05:45:26.256Z,940.8
2017-05-18T05:46:34.217Z,940.8
2017-05-18T05:47:42.304Z,940.8
2017-05-18T05:48:50.447Z,940.8
2017-05-18T05:49:58.480Z,940.8
2017-05-18T05:51:06.571Z,940.8
2017-05-18T05:52:14.656Z,940.8
2017-05-18T05:53:22.802Z,940.7
2017-05-18T05:54:31.017Z,940.8
2017-05-18T05:55:38.918Z,940.8
2017-05-18T05:56:47.008Z,940.8
2017-05-18T05:57:55.096Z,940.8
2017-05-18T05:59:03.210Z,940.8
2017-05-18T06:00:11.510Z,940.8
2017-05-18T06:01:19.605Z,940.8
2017-05-18T06:02:27.439Z,940.8
2017-05-18T06:03:35.524Z,940.8
2017-05-18T06:04:43.618Z,940.8
2017-05-18T06:05:51.821Z,940.8
2017-05-18T06:06:59.790Z,940.8
2017-05-18T06:08:07.881Z,940.8
2017-05-18T06:09:15.963Z,940.8
2017-05-18T06:10:24.050Z,940.8
2017-05-18T06:11:32.384Z,940.8
2017-05-18T06:12:40.218Z,940.8
2017-05-18T06:13:48.310Z,940.8
2017-05-18T06:14:56.392Z,940.9
2017-05-18T06:16:04.476Z,940.9
2017-05-18T06:17:12.681Z,940.9
2017-05-18T06:18:20.648Z,941.0
2017-05-18T06:19:28.733Z,941.0
2017-05-18T06:20:36.820Z,941.0
2017-05-18T06:21:44.910Z,940.9
2017-05-18T06:22:53.245Z,940.9
2017-05-18T06:24:01.221Z,940.9
2017-05-18T06:25:09.216Z,940.9
2017-05-18T06:26:17.901Z,940.9
2017-05-18T06:27:25.597Z,940.8
2017-05-18T06:28:33.550Z,940.9
2017-05-18T06:29:41.707Z,940.9
2017-05-18T06:30:49.599Z,940.9
2017-05-18T06:31:57.686Z,941.0
2017-05-18T06:33:06.025Z,940.9
2017-05-18T06:34:13.920Z,940.9
2017-05-18T06:35:22.072Z,941.0
2017-05-18T06:36:30.689Z,941.0
2017-05-18T06:37:38.129Z,941.0
2017-05-18T06:38:46.219Z,940.9
2017-05-18T06:39:54.357Z,941.0
2017-05-18T06:41:02.496Z,941.0
2017-05-18T06:42:10.599Z,941.0
2017-05-18T06:43:18.557Z,941.0
2017-05-18T06:44:26.647Z,941.0
2017-05-18T06:45:34.849Z,941.0
2017-05-18T06:46:42.820Z,941.0
2017-05-18T06:47:51.048Z,940.9
2017-05-18T06:48:59.236Z,941.0
2017-05-18T06:50:07.077Z,941.0
2017-05-18T06:51:15.218Z,941.0
2017-05-18T06:52:23.249Z,941.1
2017-05-18T06:53:31.490Z,941.1
2017-05-18T06:54:39.611Z,941.1
2017-05-18T06:55:47.503Z,941.1
2017-05-18T06:56:55.710Z,941.1
2017-05-18T06:58:03.680Z,941.1
2017-05-18T06:59:11.760Z,941.1
2017-05-18T07:00:19.850Z,941.1
2017-05-18T07:01:27.933Z,941.1
2017-05-18T07:02:36.080Z,941.1
2017-05-18T07:03:44.105Z,941.1
2017-05-18T07:04:52.442Z,941.1
2017-05-18T07:06:00.451Z,941.1
2017-05-18T07:07:08.550Z,941.1
2017-05-18T07:08:16.572Z,941.1
2017-05-18T07:09:24.534Z,941.1
2017-05-18T07:10:32.620Z,941.1
2017-05-18T07:11:40.712Z,941.1
2017-05-18T07:12:48.873Z,941.1
2017-05-18T07:13:57.014Z,941.1
2017-05-18T07:15:04.975Z,941.2
2017-05-18T07:16:13.059Z,941.2
2017-05-18T07:17:21.147Z,941.2
2017-05-18T07:18:29.398Z,941.3
2017-05-18T07:19:37.524Z,941.3
2017-05-18T07:20:45.468Z,941.3
2017-05-18T07:21:53.506Z,941.3
2017-05-18T07:23:01.584Z,941.3
2017-05-18T07:24:09.673Z,941.3
2017-05-18T07:25:17.926Z,941.3
2017-05-18T07:26:25.846Z,941.3
2017-05-18T07:27:33.929Z,941.3
2017-05-18T07:28:42.011Z,941.3
2017-05-18T07:29:50.099Z,941.3
2017-05-18T07:30:58.388Z,941.3
2017-05-18T07:32:06.274Z,941.3
2017-05-18T07:33:14.356Z,941.2
2017-05-18T07:34:22.446Z,941.2
2017-05-18T07:35:30.528Z,941.2
2017-05-18T07:36:38.812Z,941.2
2017-05-18T07:37:46.706Z,941.2
2017-05-18T07:38:54.791Z,941.2
2017-05-18T07:40:02.873Z,941.2
2017-05-18T07:41:10.965Z,941.2
2017-05-18T07:42:19.105Z,941.2
2017-05-18T07:43:27.239Z,941.2
2017-05-18T07:44:35.222Z,941.2
2017-05-18T07:45:43.309Z,941.2
2017-05-18T07:46:51.393Z,941.2
2017-05-18T07:47:59.600Z,941.2
2017-05-18T07:49:07.642Z,941.2
2017-05-18T07:50:15.784Z,941.3
2017-05-18T07:51:23.745Z,941.3
2017-05-18T07:52:31.888Z,941.3
2017-05-18T07:53:40.038Z,941.3
2017-05-18T07:54:48.005Z,941.3
2017-05-18T07:55:56.198Z,941.3
2017-05-18T07:57:04.188Z,941.3
2017-05-18T07:58:12.271Z,941.3
2017-05-18T07:59:20.473Z,941.3
2017-05-18T08:00:28.445Z,941.3
2017-05-18T08:01:36.579Z,941.3
2017-05-18T08:02:44.702Z,941.3
2017-05-18T08:03:52.696Z,941.3
2017-05-18T08:05:01.165Z,941.3
2017-05-18T08:06:08.869Z,941.2
2017-05-18T08:07:16.962Z,941.2
2017-05-18T08:08:25.186Z,941.2
2017-05-18T08:09:33.133Z,941.2
2017-05-18T08:10:41.340Z,941.2
2017-05-18T08:11:49.305Z,941.2
2017-05-18T08:12:57.393Z,941.2
2017-05-18T08:14:05.473Z,941.3
2017-05-18T08:15:13.570Z,941.2
2017-05-18T08:16:21.768Z,941.2
2017-05-18T08:17:29.737Z,941.2
2017-05-18T08:18:38.016Z,941.2
2017-05-18T08:19:45.911Z,941.2
2017-05-18T08:20:53.993Z,941.2
2017-05-18T08:22:02.217Z,941.2
2017-05-18T08:23:10.185Z,941.2
2017-05-18T08:24:18.386Z,941.2
2017-05-18T08:25:26.521Z,941.2
2017-05-18T08:26:34.442Z,941.2
2017-05-18T08:27:42.700Z,941.2
2017-05-18T08:28:50.614Z,941.1
2017-05-18T08:29:58.703Z,941.1
2017-05-18T08:31:06.821Z,941.2
2017-05-18T08:32:15.020Z,941.2
2017-05-18T08:33:23.096Z,941.2
2017-05-18T08:34:31.067Z,941.2
2017-05-18T08:35:39.142Z,941.2
2017-05-18T08:36:47.231Z,941.2
2017-05-18T08:37:55.409Z,941.2
2017-05-18T08:39:03.460Z,941.2
2017-05-18T08:40:11.611Z,941.1
2017-05-18T08:41:19.571Z,941.2
2017-05-18T08:42:27.658Z,941.1
2017-05-18T08:43:35.746Z,941.1
2017-05-18T08:44:43.956Z,941.1
2017-05-18T08:45:51.920Z,941.1
2017-05-18T08:47:00.010Z,941.1
2017-05-18T08:48:08.093Z,941.1
2017-05-18T08:49:16.178Z,941.2
2017-05-18T08:50:24.332Z,941.1
2017-05-18T08:51:32.349Z,941.1
2017-05-18T08:52:40.439Z,941.1
2017-05-18T08:53:48.525Z,941.1
2017-05-18T08:54:56.633Z,941.1
2017-05-18T08:56:04.817Z,941.1
2017-05-18T08:57:12.782Z,941.0
2017-05-18T08:58:20.869Z,941.1
2017-05-18T08:59:28.955Z,941.1
2017-05-18T09:00:37.198Z,941.1
2017-05-18T09:01:45.186Z,941.1
2017-05-18T09:02:53.211Z,941.0
2017-05-18T09:04:01.300Z,941.0
2017-05-18T09:05:09.387Z,941.0
2017-05-18T09:06:17.469Z,941.0
2017-05-18T09:07:25.773Z,941.0
2017-05-18T09:08:33.642Z,941.0
2017-05-18T09:09:41.735Z,941.0
2017-05-18T09:10:49.820Z,940.9
2017-05-18T09:11:58.022Z,941.0
2017-05-18T09:13:06.147Z,941.0
2017-05-18T09:14:14.082Z,940.9
2017-05-18T09:15:22.169Z,940.9
2017-05-18T09:16:30.249Z,940.9
2017-05-18T09:17:38.337Z,940.9
2017-05-18T09:18:46.547Z,940.9
2017-05-18T09:19:54.515Z,940.9
2017-05-18T09:21:02.596Z,940.9
2017-05-18T09:22:10.682Z,940.9
2017-05-18T09:23:18.774Z,940.9
2017-05-18T09:24:26.977Z,940.9
2017-05-18T09:25:34.948Z,940.9
2017-05-18T09:26:43.034Z,940.9
2017-05-18T09:27:51.242Z,940.9
2017-05-18T09:28:59.212Z,940.9
2017-05-18T09:30:07.527Z,940.9
2017-05-18T09:31:15.380Z,940.8
2017-05-18T09:32:23.469Z,940.8
2017-05-18T09:33:31.554Z,940.9
2017-05-18T09:34:39.642Z,940.8
2017-05-18T09:35:47.864Z,940.8
2017-05-18T09:36:55.853Z,940.8
2017-05-18T09:38:03.901Z,940.8
2017-05-18T09:39:11.988Z,940.8
2017-05-18T09:40:20.075Z,940.9
2017-05-18T09:41:28.284Z,940.8
2017-05-18T09:42:36.317Z,940.8
2017-05-18T09:43:44.390Z,940.8
2017-05-18T09:44:52.423Z,940.8
2017-05-18T09:46:00.505Z,940.8
2017-05-18T09:47:08.711Z,940.8
2017-05-18T09:48:16.680Z,940.8
2017-05-18T09:49:24.766Z,940.8
2017-05-18T09:50:32.858Z,940.8
2017-05-18T09:51:40.944Z,940.7
2017-05-18T09:52:49.146Z,940.7
2017-05-18T09:53:57.118Z,940.7
2017-05-18T09:55:05.202Z,940.7
2017-05-18T09:56:13.290Z,940.6
2017-05-18T09:57:21.375Z,940.7
2017-05-18T09:58:29.516Z,940.7
2017-05-18T09:59:37.846Z,940.6
2017-05-18T10:00:45.641Z,940.6
2017-05-18T10:01:53.728Z,940.6
2017-05-18T10:03:01.816Z,940.6
2017-05-18T10:04:10.023Z,940.6
2017-05-18T10:05:18.109Z,940.6
2017-05-18T10:06:26.232Z,940.6
2017-05-18T10:07:34.166Z,940.6
2017-05-18T10:08:42.251Z,940.6
2017-05-18T10:09:50.458Z,940.5
2017-05-18T10:10:58.429Z,940.6
2017-05-18T10:12:06.695Z,940.5
2017-05-18T10:13:14.598Z,940.5
2017-05-18T10:14:22.683Z,940.5
2017-05-18T10:15:30.891Z,940.5
2017-05-18T10:16:38.857Z,940.5
2017-05-18T10:17:46.946Z,940.5
2017-05-18T10:18:55.034Z,940.5
2017-05-18T10:20:03.119Z,940.5
2017-05-18T10:21:11.335Z,940.5
2017-05-18T10:22:19.300Z,940.5
2017-05-18T10:23:27.388Z,940.5
2017-05-18T10:24:35.473Z,940.5
2017-05-18T10:25:43.560Z,940.5
2017-05-18T10:26:51.768Z,940.5
2017-05-18T10:27:59.735Z,940.4
2017-05-18T10:29:07.823Z,940.5
2017-05-18T10:30:15.910Z,940.5
2017-05-18T10:31:24.150Z,940.5
2017-05-18T10:32:32.203Z,940.5
2017-05-18T10:33:40.170Z,940.5
2017-05-18T10:34:48.256Z,940.5
2017-05-18T10:35:56.344Z,940.4
2017-05-18T10:37:04.434Z,940.4
2017-05-18T10:38:12.640Z,940.4
2017-05-18T10:39:20.608Z,940.4
2017-05-18T10:40:28.698Z,940.4
2017-05-18T10:41:36.786Z,940.4
2017-05-18T10:42:44.897Z,940.4
2017-05-18T10:43:53.081Z,940.4
2017-05-18T10:45:01.540Z,940.3
2017-05-18T10:46:09.135Z,940.3
2017-05-18T10:47:17.341Z,940.3
2017-05-18T10:48:25.397Z,940.3
2017-05-18T10:49:33.619Z,940.3
2017-05-18T10:50:41.482Z,940.3
2017-05-18T10:51:49.569Z,940.3
2017-05-18T10:52:57.664Z,940.2
2017-05-18T10:54:05.745Z,940.2
2017-05-18T10:55:13.974Z,940.2
2017-05-18T10:56:21.920Z,940.2
2017-05-18T10:57:30.007Z,940.2
2017-05-18T10:58:38.097Z,940.2
2017-05-18T10:59:46.180Z,940.1
2017-05-18T11:00:54.478Z,940.2
2017-05-18T11:02:02.481Z,940.1
2017-05-18T11:03:10.562Z,940.1
2017-05-18T11:04:18.531Z,940.1
2017-05-18T11:05:26.617Z,940.1
2017-05-18T11:06:34.760Z,940.0
2017-05-18T11:07:42.791Z,940.0
2017-05-18T11:08:50.879Z,940.0
2017-05-18T11:09:58.965Z,940.0
2017-05-18T11:11:07.053Z,939.9
2017-05-18T11:12:15.260Z,940.0
2017-05-18T11:13:23.295Z,940.0
2017-05-18T11:14:31.414Z,939.9
2017-05-18T11:15:39.403Z,939.9
2017-05-18T11:16:47.495Z,939.9
2017-05-18T11:17:55.697Z,939.9
2017-05-18T11:19:03.721Z,939.9
2017-05-18T11:20:11.749Z,939.9
2017-05-18T11:21:19.843Z,939.8
2017-05-18T11:22:27.931Z,939.8
2017-05-18T11:23:36.141Z,939.8
2017-05-18T11:24:44.108Z,939.8
2017-05-18T11:25:52.243Z,939.8
2017-05-18T11:27:00.341Z,939.8
2017-05-18T11:28:08.369Z,939.8
2017-05-18T11:29:16.576Z,939.8
2017-05-18T11:30:24.547Z,939.8
2017-05-18T11:31:32.633Z,939.8
2017-05-18T11:32:40.719Z,939.8
2017-05-18T11:33:48.812Z,939.8
2017-05-18T11:34:56.951Z,939.8
2017-05-18T11:36:04.981Z,939.7
2017-05-18T11:37:13.070Z,939.7
2017-05-18T11:38:21.154Z,939.8
2017-05-18T11:39:29.243Z,939.8
2017-05-18T11:40:37.449Z,939.7
2017-05-18T11:41:45.416Z,939.7
2017-05-18T11:42:53.626Z,939.7
2017-05-18T11:44:01.722Z,939.7
2017-05-18T11:45:09.701Z,939.7
2017-05-18T11:46:17.888Z,939.6
2017-05-18T11:47:25.853Z,939.6
2017-05-18T11:48:33.942Z,939.6
2017-05-18T11:49:42.117Z,939.6
2017-05-18T11:50:50.236Z,939.6
2017-05-18T11:51:58.263Z,939.6
2017-05-18T11:53:06.299Z,939.5
2017-05-18T11:54:14.381Z,939.6
2017-05-18T11:55:22.473Z,939.5
2017-05-18T11:56:30.557Z,939.5
2017-05-18T11:57:38.764Z,939.5
2017-05-18T11:58:46.727Z,939.5
2017-05-18T11:59:54.817Z,939.5
2017-05-18T12:01:02.905Z,939.5
2017-05-18T12:02:10.994Z,939.5
2017-05-18T12:03:19.201Z,939.5
2017-05-18T12:04:27.168Z,939.5
2017-05-18T12:05:35.260Z,939.5
2017-05-18T12:06:43.561Z,939.5
2017-05-18T12:07:51.428Z,939.5
2017-05-18T12:08:59.637Z,939.5
2017-05-18T12:10:07.603Z,939.5
2017-05-18T12:11:15.691Z,939.4
2017-05-18T12:12:23.779Z,939.4
2017-05-18T12:13:31.867Z,939.5
2017-05-18T12:14:40.075Z,939.4
2017-05-18T12:15:48.049Z,939.4
2017-05-18T12:16:56.132Z,939.4
2017-05-18T12:18:04.225Z,939.4
2017-05-18T12:19:12.337Z,939.4
2017-05-18T12:20:21.250Z,939.4
2017-05-18T12:21:28.566Z,939.4
2017-05-18T12:22:36.722Z,939.4
2017-05-18T12:23:44.715Z,939.3
2017-05-18T12:24:52.747Z,939.4
2017-05-18T12:26:00.893Z,939.4
2017-05-18T12:27:08.923Z,939.4
2017-05-18T12:28:17.007Z,939.3
2017-05-18T12:29:25.097Z,939.3
2017-05-18T12:30:33.184Z,939.3
2017-05-18T12:31:41.393Z,939.3
2017-05-18T12:32:49.361Z,939.3
2017-05-18T12:33:57.447Z,939.3
2017-05-18T12:35:05.535Z,939.3
2017-05-18T12:36:13.622Z,939.3
2017-05-18T12:37:21.830Z,939.3
2017-05-18T12:38:29.853Z,939.3
2017-05-18T12:39:37.887Z,939.3
2017-05-18T12:40:45.975Z,939.3
2017-05-18T12:41:54.236Z,939.3
2017-05-18T12:43:02.274Z,939.3
2017-05-18T12:44:10.236Z,939.3
2017-05-18T12:45:18.325Z,939.3
2017-05-18T12:46:26.411Z,939.3
2017-05-18T12:47:34.620Z,939.3
2017-05-18T12:48:43.023Z,939.3
2017-05-18T12:49:50.674Z,939.2
2017-05-18T12:50:58.762Z,939.2
2017-05-18T12:52:06.848Z,939.2
2017-05-18T12:53:14.935Z,939.2
2017-05-18T12:54:23.151Z,939.2
2017-05-18T12:55:31.112Z,939.2
2017-05-18T12:56:39.202Z,939.2
2017-05-18T12:57:47.287Z,939.2
2017-05-18T12:58:55.376Z,939.2
2017-05-18T13:00:03.615Z,939.2
2017-05-18T13:01:11.600Z,939.2
2017-05-18T13:02:19.638Z,939.1
2017-05-18T13:03:27.975Z,939.1
2017-05-18T13:04:35.821Z,939.1
2017-05-18T13:05:44.020Z,939.1
2017-05-18T13:06:51.989Z,939.1
2017-05-18T13:08:00.129Z,939.1
2017-05-18T13:09:08.163Z,939.0
2017-05-18T13:10:16.372Z,939.1
2017-05-18T13:11:24.458Z,939.1
2017-05-18T13:12:32.427Z,939.0
2017-05-18T13:13:40.559Z,939.0
2017-05-18T13:14:48.608Z,939.0
2017-05-18T13:15:56.697Z,939.0
2017-05-18T13:17:04.959Z,939.0
2017-05-18T13:18:13.036Z,939.0
2017-05-18T13:19:21.621Z,939.0
2017-05-18T13:20:29.046Z,939.0
2017-05-18T13:21:37.137Z,939.0
2017-05-18T13:22:45.346Z,939.0
2017-05-18T13:23:53.395Z,939.0
2017-05-18T13:25:01.394Z,939.0
2017-05-18T13:26:09.604Z,939.0
2017-05-18T13:27:17.574Z,938.9
2017-05-18T13:28:25.777Z,939.0
2017-05-18T13:29:33.749Z,938.9
2017-05-18T13:30:41.833Z,938.9
2017-05-18T13:31:49.922Z,939.0
2017-05-18T13:32:58.008Z,939.0
2017-05-18T13:34:06.216Z,938.9
2017-05-18T13:35:14.181Z,938.9
2017-05-18T13:36:22.270Z,938.9
2017-05-18T13:37:30.357Z,938.9
2017-05-18T13:38:38.446Z,938.9
2017-05-18T13:39:46.659Z,938.9
2017-05-18T13:40:54.622Z,938.9
2017-05-18T13:42:02.831Z,938.9
2017-05-18T13:43:10.797Z,938.9
2017-05-18T13:44:18.883Z,938.9
2017-05-18T13:45:27.093Z,938.9
2017-05-18T13:46:35.255Z,938.9
2017-05-18T13:47:43.146Z,938.9
2017-05-18T13:48:51.234Z,938.9
2017-05-18T13:49:59.332Z,938.9
2017-05-18T13:51:07.534Z,938.8
2017-05-18T13:52:15.501Z,938.9
2017-05-18T13:53:23.588Z,938.8
2017-05-18T13:54:31.674Z,938.8
2017-05-18T13:55:39.763Z,938.8
2017-05-18T13:56:47.975Z,938.8
2017-05-18T13:57:56.062Z,938.8
2017-05-18T13:59:04.029Z,938.8
2017-05-18T14:00:12.218Z,938.8
2017-05-18T14:01:20.209Z,938.8
2017-05-18T14:02:28.411Z,938.8
2017-05-18T14:03:36.376Z,938.8
2017-05-18T14:04:44.465Z,938.8
2017-05-18T14:05:52.555Z,938.8
2017-05-18T14:07:00.641Z,938.7
2017-05-18T14:08:08.850Z,938.7
2017-05-18T14:09:16.818Z,938.8
2017-05-18T14:10:24.904Z,938.8
2017-05-18T14:11:33.130Z,938.7
2017-05-18T14:12:41.080Z,938.7
2017-05-18T14:13:49.287Z,938.7
2017-05-18T14:14:57.258Z,938.7
2017-05-18T14:16:05.342Z,938.7
2017-05-18T14:17:13.556Z,938.7
2017-05-18T14:18:21.599Z,938.6
2017-05-18T14:19:31.110Z,938.7
2017-05-18T14:20:37.696Z,938.7
2017-05-18T14:21:45.782Z,938.7
2017-05-18T14:22:53.903Z,938.7
2017-05-18T14:24:01.955Z,938.6
2017-05-18T14:25:10.175Z,938.7
2017-05-18T14:26:18.132Z,938.6
2017-05-18T14:27:26.219Z,938.7
2017-05-18T14:28:34.311Z,938.7
2017-05-18T14:29:42.515Z,938.6
2017-05-18T14:30:50.605Z,938.7
2017-05-18T14:31:58.573Z,938.6
2017-05-18T14:33:06.656Z,938.6
2017-05-18T14:34:14.768Z,938.6
2017-05-18T14:35:22.831Z,938.7
2017-05-18T14:36:31.040Z,938.6